Time;durP1;ratioP1;P1;durP2;ratioP2;P2;SDS_P1;SDS_P2;PMS_P1;PMS_P2;Temp;Humidity;BMP_temperature;BMP_pressure;BME280_temperature;BME280_humidity;BME280_pressure;Samples;Min_cycle;Max_cycle;Signal;HPM_P1;HPM_P2
2023/05/25 00:01:35;;;;;;;3.67;2.10;;;11.60;99.90;;;;;;5009001;28;20132;-73
2023/05/25 00:04:02;;;;;;;5.47;2.05;;;11.60;99.90;;;;;;5022892;28;20045;-73
2023/05/25 00:06:31;;;;;;;6.47;2.78;;;11.50;99.90;;;;;;5024423;28;20053;-73
2023/05/25 00:08:57;;;;;;;6.97;3.17;;;11.50;99.90;;;;;;5026678;28;20041;-73
2023/05/25 00:11:23;;;;;;;11.15;2.88;;;11.60;99.90;;;;;;5027018;28;20102;-73
2023/05/25 00:13:50;;;;;;;5.18;2.60;;;11.60;99.90;;;;;;5025788;28;20057;-73
2023/05/25 00:16:15;;;;;;;6.63;2.72;;;11.60;99.90;;;;;;5026426;28;20152;-73
2023/05/25 00:18:42;;;;;;;5.53;3.25;;;11.70;99.90;;;;;;5024751;28;20117;-74
2023/05/25 00:21:08;;;;;;;7.18;2.10;;;11.70;99.90;;;;;;5008737;28;20084;-73
2023/05/25 00:23:33;;;;;;;7.22;2.30;;;11.70;99.90;;;;;;5018884;28;20103;-73
2023/05/25 00:26:02;;;;;;;6.68;3.35;;;11.70;99.90;;;;;;5010443;28;20042;-73
2023/05/25 00:28:28;;;;;;;3.72;2.50;;;11.70;99.90;;;;;;5021994;28;20045;-73
2023/05/25 00:30:54;;;;;;;3.95;2.60;;;11.70;99.90;;;;;;5012343;28;20103;-73
2023/05/25 00:33:20;;;;;;;4.20;2.65;;;11.70;99.90;;;;;;5024247;28;20124;-73
2023/05/25 00:35:46;;;;;;;6.93;2.53;;;11.70;99.90;;;;;;5020692;28;20478;-73
2023/05/25 00:38:13;;;;;;;7.07;2.13;;;11.70;99.90;;;;;;5007130;28;20091;-73
2023/05/25 00:40:40;;;;;;;9.98;3.03;;;11.70;99.90;;;;;;5006174;28;20050;-73
2023/05/25 00:43:07;;;;;;;6.97;3.42;;;11.70;99.90;;;;;;5006608;28;20046;-73
2023/05/25 00:45:33;;;;;;;6.00;2.08;;;11.70;99.90;;;;;;5011562;28;20087;-73
2023/05/25 00:47:59;;;;;;;4.43;2.45;;;11.70;99.90;;;;;;5015397;28;20677;-73
2023/05/25 00:50:42;;;;;;;9.85;2.83;;;11.70;99.90;;;;;;5008048;28;20505;-73
2023/05/25 00:53:09;;;;;;;5.63;2.10;;;11.70;99.90;;;;;;5022652;28;20052;-74
2023/05/25 00:55:39;;;;;;;5.65;3.28;;;11.70;99.90;;;;;;5023998;28;20057;-73
2023/05/25 00:58:07;;;;;;;5.93;2.72;;;11.70;99.90;;;;;;5025816;28;20136;-73
2023/05/25 01:00:36;;;;;;;4.88;2.03;;;11.60;99.90;;;;;;5025683;28;20662;-73
2023/05/25 01:03:10;;;;;;;5.28;2.40;;;11.70;99.90;;;;;;5010940;28;20412;-73
2023/05/25 01:05:39;;;;;;;6.65;2.33;;;11.60;99.90;;;;;;5005238;28;20046;-73
2023/05/25 01:08:06;;;;;;;4.47;2.25;;;11.60;99.90;;;;;;5004710;28;20077;-73
2023/05/25 01:10:34;;;;;;;3.47;1.92;;;11.60;99.90;;;;;;5076942;23;20026;-73
2023/05/25 01:13:01;;;;;;;9.52;3.42;;;11.60;99.90;;;;;;5003655;28;20049;-74
2023/05/25 01:15:28;;;;;;;8.30;2.35;;;11.60;99.90;;;;;;5004361;28;20038;-73
2023/05/25 01:17:58;;;;;;;10.65;3.55;;;11.60;99.90;;;;;;5005036;28;20100;-73
2023/05/25 01:20:28;;;;;;;9.07;3.05;;;11.50;99.90;;;;;;4988311;28;20034;-73
2023/05/25 01:22:58;;;;;;;7.07;3.08;;;11.50;99.90;;;;;;5005064;28;20139;-73
2023/05/25 01:25:32;;;;;;;7.07;2.40;;;11.50;99.90;;;;;;5001552;28;20042;-73
2023/05/25 01:28:04;;;;;;;10.30;2.80;;;11.50;99.90;;;;;;4989943;28;20571;-73
2023/05/25 01:30:31;;;;;;;5.90;2.33;;;11.50;99.90;;;;;;5005241;28;20034;-74
2023/05/25 01:32:58;;;;;;;4.70;1.88;;;11.50;99.90;;;;;;5004400;28;20454;-74
2023/05/25 01:35:25;;;;;;;3.42;2.70;;;11.50;99.90;;;;;;5004294;28;20502;-74
2023/05/25 01:37:51;;;;;;;6.95;2.17;;;11.40;99.90;;;;;;5004617;28;20041;-73
2023/05/25 01:40:16;;;;;;;4.95;2.72;;;11.40;99.90;;;;;;5005305;28;20276;-74
2023/05/25 01:42:42;;;;;;;4.22;2.13;;;11.40;99.90;;;;;;5004166;28;20046;-73
2023/05/25 01:45:09;;;;;;;6.13;2.00;;;11.40;99.90;;;;;;5004024;28;20179;-73
2023/05/25 01:47:56;;;;;;;11.60;2.20;;;11.40;99.90;;;;;;5004737;28;20050;-74
2023/05/25 01:50:25;;;;;;;5.45;1.95;;;11.40;99.90;;;;;;5003867;28;20046;-74
2023/05/25 01:53:01;;;;;;;5.15;2.72;;;11.40;99.90;;;;;;5003378;28;20049;-73
2023/05/25 01:55:31;;;;;;;3.55;2.83;;;11.40;99.90;;;;;;5003785;28;20041;-74
2023/05/25 01:57:58;;;;;;;6.18;2.30;;;11.40;99.90;;;;;;5003860;28;20046;-74
2023/05/25 02:00:30;;;;;;;8.40;2.78;;;11.40;99.90;;;;;;5004059;28;20076;-74
2023/05/25 02:02:56;;;;;;;4.40;2.03;;;11.40;99.90;;;;;;5005345;28;20057;-73
2023/05/25 02:05:22;;;;;;;8.15;3.35;;;11.40;99.90;;;;;;5003943;28;20322;-74
2023/05/25 02:07:47;;;;;;;7.00;3.35;;;11.40;99.90;;;;;;5003730;28;20038;-74
2023/05/25 02:10:13;;;;;;;5.50;3.20;;;11.40;99.90;;;;;;5004975;28;20119;-74
2023/05/25 02:12:38;;;;;;;7.03;3.33;;;11.30;99.90;;;;;;4986194;28;20057;-74
2023/05/25 02:15:05;;;;;;;6.80;2.80;;;11.30;99.90;;;;;;5004864;28;20519;-73
2023/05/25 02:17:30;;;;;;;8.35;2.85;;;11.30;99.90;;;;;;5004727;28;20088;-74
2023/05/25 02:19:56;;;;;;;6.05;3.17;;;11.30;99.90;;;;;;5004703;28;20037;-74
2023/05/25 02:22:22;;;;;;;8.02;3.47;;;11.30;99.90;;;;;;5003146;28;20093;-73
2023/05/25 02:24:48;;;;;;;5.40;2.65;;;11.20;99.90;;;;;;5003587;28;20116;-73
2023/05/25 02:27:14;;;;;;;4.93;2.85;;;11.20;99.90;;;;;;4983576;28;20050;-73
2023/05/25 02:29:40;;;;;;;8.50;3.20;;;11.20;99.90;;;;;;4998501;28;20558;-74
2023/05/25 02:32:06;;;;;;;6.50;2.95;;;11.20;99.90;;;;;;5004705;28;20038;-74
2023/05/25 02:34:32;;;;;;;6.65;2.58;;;11.20;99.90;;;;;;5004330;28;20048;-73
2023/05/25 02:36:57;;;;;;;7.25;3.53;;;11.20;99.90;;;;;;5002135;28;20181;-74
2023/05/25 02:39:26;;;;;;;4.95;2.60;;;11.20;99.90;;;;;;5004760;28;20038;-73
2023/05/25 02:41:52;;;;;;;4.90;2.50;;;11.10;99.90;;;;;;5004686;28;20412;-73
2023/05/25 02:44:18;;;;;;;5.10;2.50;;;11.10;99.90;;;;;;5002808;28;20042;-73
2023/05/25 02:46:43;;;;;;;4.72;2.65;;;11.20;99.90;;;;;;5003726;28;20717;-73
2023/05/25 02:49:09;;;;;;;7.93;3.55;;;11.10;99.90;;;;;;5002856;28;20052;-73
2023/05/25 02:51:35;;;;;;;6.47;2.63;;;11.20;99.90;;;;;;5002993;28;20037;-73
2023/05/25 02:54:01;;;;;;;14.43;4.32;;;11.10;99.90;;;;;;5003821;28;20049;-73
2023/05/25 02:56:27;;;;;;;7.18;3.13;;;11.20;99.90;;;;;;5002690;28;20052;-73
2023/05/25 02:58:52;;;;;;;9.25;3.88;;;11.10;99.90;;;;;;5003571;28;20045;-74
2023/05/25 03:01:18;;;;;;;5.20;3.13;;;11.10;99.90;;;;;;5003576;28;20050;-73
2023/05/25 03:03:45;;;;;;;7.00;3.83;;;11.10;99.90;;;;;;5002322;28;20041;-73
2023/05/25 03:06:12;;;;;;;5.85;3.25;;;11.10;99.90;;;;;;5003067;28;20069;-73
2023/05/25 03:08:39;;;;;;;13.45;4.18;;;11.10;99.90;;;;;;5002325;28;20111;-73
2023/05/25 03:11:05;;;;;;;9.43;3.63;;;11.10;99.90;;;;;;5002221;28;20082;-73
2023/05/25 03:13:30;;;;;;;9.13;3.47;;;11.10;99.90;;;;;;5002088;28;20054;-73
2023/05/25 03:15:56;;;;;;;11.95;4.18;;;11.10;99.90;;;;;;5003960;28;20045;-74
2023/05/25 03:18:22;;;;;;;6.93;3.78;;;11.10;99.90;;;;;;5004181;28;20038;-73
2023/05/25 03:20:47;;;;;;;7.68;3.97;;;11.10;99.90;;;;;;5001722;28;20046;-74
2023/05/25 03:23:13;;;;;;;9.48;3.78;;;11.10;99.90;;;;;;5002742;28;20049;-73
2023/05/25 03:25:38;;;;;;;7.32;4.03;;;11.10;99.90;;;;;;5003344;28;20095;-73
2023/05/25 03:28:04;;;;;;;8.80;3.10;;;11.10;99.90;;;;;;5003421;28;20060;-73
2023/05/25 03:30:30;;;;;;;6.90;4.18;;;11.10;99.90;;;;;;5002259;28;20365;-73
2023/05/25 03:32:56;;;;;;;13.23;4.07;;;11.00;99.90;;;;;;5003747;28;20042;-73
2023/05/25 03:35:21;;;;;;;7.22;3.05;;;11.00;99.90;;;;;;5003652;28;20542;-73
2023/05/25 03:37:47;;;;;;;10.15;4.18;;;11.00;99.90;;;;;;5003142;28;20060;-73
2023/05/25 03:40:13;;;;;;;8.25;3.13;;;11.00;99.90;;;;;;5006722;28;20168;-74
2023/05/25 03:42:39;;;;;;;7.40;3.85;;;11.00;99.90;;;;;;5005713;28;20076;-73
2023/05/25 03:45:07;;;;;;;11.63;3.70;;;11.00;99.90;;;;;;5006096;28;20429;-73
2023/05/25 03:47:33;;;;;;;8.27;2.85;;;11.00;99.90;;;;;;5006868;28;20049;-74
2023/05/25 03:49:59;;;;;;;9.80;3.60;;;11.00;99.90;;;;;;5007217;28;20050;-74
2023/05/25 03:52:25;;;;;;;7.93;4.03;;;11.00;99.90;;;;;;5006674;28;20396;-73
2023/05/25 03:54:51;;;;;;;6.25;2.50;;;11.00;99.90;;;;;;5006331;28;20057;-73
2023/05/25 03:57:16;;;;;;;9.15;3.47;;;11.00;99.90;;;;;;5007754;28;20041;-73
2023/05/25 03:59:42;;;;;;;4.57;3.13;;;11.00;99.90;;;;;;5007282;28;20125;-73
2023/05/25 04:02:07;;;;;;;8.00;2.58;;;11.10;99.90;;;;;;5006929;28;20766;-74
2023/05/25 04:04:33;;;;;;;5.35;3.08;;;11.10;99.90;;;;;;5005489;28;20369;-73
2023/05/25 04:06:58;;;;;;;3.63;2.58;;;11.10;99.90;;;;;;4989704;28;20125;-74
2023/05/25 04:09:24;;;;;;;5.95;2.90;;;11.10;99.90;;;;;;5007360;28;20049;-73
2023/05/25 04:11:50;;;;;;;6.70;2.72;;;11.10;99.90;;;;;;5006571;28;20050;-73
2023/05/25 04:14:15;;;;;;;9.25;3.60;;;11.10;99.90;;;;;;5006795;28;20471;-73
2023/05/25 04:16:41;;;;;;;8.10;3.05;;;11.10;99.90;;;;;;5005511;28;20129;-73
2023/05/25 04:19:07;;;;;;;4.75;2.63;;;11.10;99.90;;;;;;5006817;28;20042;-73
2023/05/25 04:21:32;;;;;;;7.57;3.88;;;11.10;99.90;;;;;;4988205;28;20041;-73
2023/05/25 04:23:58;;;;;;;6.85;2.72;;;11.10;99.90;;;;;;5006216;28;20133;-73
2023/05/25 04:26:26;;;;;;;9.80;4.05;;;11.10;99.90;;;;;;4989320;28;20037;-73
2023/05/25 04:28:53;;;;;;;5.78;2.90;;;11.10;99.90;;;;;;5005818;28;20054;-73
2023/05/25 04:31:19;;;;;;;7.47;2.15;;;11.10;99.90;;;;;;5006710;28;20065;-74
2023/05/25 04:33:45;;;;;;;14.27;3.35;;;11.10;99.90;;;;;;5006254;28;20144;-73
2023/05/25 04:36:13;;;;;;;5.20;2.00;;;11.10;99.90;;;;;;5005497;28;20129;-73
2023/05/25 04:38:38;;;;;;;4.40;2.58;;;11.10;99.90;;;;;;5006313;28;20042;-74
2023/05/25 04:41:05;;;;;;;7.72;3.10;;;11.10;99.90;;;;;;5006892;28;20152;-73
2023/05/25 04:43:31;;;;;;;6.78;3.42;;;11.20;99.90;;;;;;5004630;28;20050;-74
2023/05/25 04:45:58;;;;;;;6.03;3.22;;;11.20;99.90;;;;;;5004388;28;20041;-72
2023/05/25 04:48:33;;;;;;;6.40;3.15;;;11.20;99.90;;;;;;5005143;28;20418;-74
2023/05/25 04:51:03;;;;;;;8.13;2.83;;;11.20;99.90;;;;;;5003495;28;20092;-73
2023/05/25 04:53:29;;;;;;;7.20;2.78;;;11.20;99.90;;;;;;5003544;28;20089;-74
2023/05/25 04:55:55;;;;;;;6.75;3.13;;;11.20;99.90;;;;;;5005266;28;20448;-74
2023/05/25 04:58:21;;;;;;;8.60;3.17;;;11.30;99.90;;;;;;5006149;28;20044;-74
2023/05/25 05:00:47;;;;;;;7.38;4.13;;;11.30;99.90;;;;;;4999746;28;20061;-74
2023/05/25 05:03:13;;;;;;;7.88;3.38;;;11.30;99.90;;;;;;5003130;28;20050;-74
2023/05/25 05:05:38;;;;;;;5.32;3.63;;;11.40;99.90;;;;;;5005387;28;20041;-74
2023/05/25 05:08:04;;;;;;;5.60;2.50;;;11.40;99.90;;;;;;4999880;28;20042;-74
2023/05/25 05:10:30;;;;;;;6.78;3.45;;;11.40;99.90;;;;;;5001053;28;20475;-74
2023/05/25 05:12:55;;;;;;;10.52;4.00;;;11.40;99.90;;;;;;5005197;28;20061;-74
2023/05/25 05:15:21;;;;;;;8.85;3.30;;;11.50;99.90;;;;;;5002700;28;20037;-73
2023/05/25 05:17:47;;;;;;;6.93;3.05;;;11.50;99.90;;;;;;5001397;28;20099;-73
2023/05/25 05:20:12;;;;;;;9.00;2.95;;;11.50;99.90;;;;;;4993793;28;20374;-77
2023/05/25 05:22:38;;;;;;;7.78;4.75;;;11.50;99.90;;;;;;4998366;28;20049;-72
2023/05/25 05:25:04;;;;;;;8.65;4.05;;;11.50;99.90;;;;;;5000431;28;20038;-73
2023/05/25 05:27:30;;;;;;;7.07;3.53;;;11.60;99.90;;;;;;5003748;28;20054;-72
2023/05/25 05:29:55;;;;;;;8.73;4.15;;;11.60;99.90;;;;;;5003992;28;20310;-76
2023/05/25 05:32:21;;;;;;;8.70;4.38;;;11.60;99.90;;;;;;4998074;28;20053;-74
2023/05/25 05:34:47;;;;;;;8.85;3.00;;;11.70;99.90;;;;;;5003786;28;20045;-74
2023/05/25 05:37:12;;;;;;;11.07;4.35;;;11.70;99.90;;;;;;5002082;28;20037;-74
2023/05/25 05:39:38;;;;;;;11.68;5.28;;;11.70;99.90;;;;;;5004236;28;20034;-75
2023/05/25 05:42:03;;;;;;;9.15;3.65;;;11.80;99.90;;;;;;5001120;28;20117;-73
2023/05/25 05:44:29;;;;;;;11.25;3.33;;;11.80;99.90;;;;;;4987705;28;20125;-75
2023/05/25 05:46:58;;;;;;;8.45;4.97;;;11.90;99.90;;;;;;4998124;28;20069;-74
2023/05/25 05:49:30;;;;;;;9.82;4.63;;;11.90;99.90;;;;;;4986289;28;20089;-81
2023/05/25 05:51:56;;;;;;;8.45;4.47;;;11.90;99.90;;;;;;4994638;28;20081;-74
2023/05/25 05:54:22;;;;;;;7.57;3.70;;;11.90;99.90;;;;;;4989241;28;20089;-73
2023/05/25 05:56:48;;;;;;;9.23;3.97;;;12.00;99.90;;;;;;5003158;28;20479;-73
2023/05/25 05:59:14;;;;;;;5.93;3.95;;;12.00;99.90;;;;;;5003357;28;20038;-73
2023/05/25 06:01:41;;;;;;;7.47;3.70;;;12.10;99.90;;;;;;4985273;28;20108;-74
2023/05/25 06:04:06;;;;;;;13.15;5.20;;;12.10;99.90;;;;;;4981620;28;20050;-74
2023/05/25 06:06:33;;;;;;;10.05;3.08;;;12.10;99.90;;;;;;4982159;28;20365;-73
2023/05/25 06:09:03;;;;;;;6.75;3.22;;;12.20;99.90;;;;;;4995910;28;20085;-74
2023/05/25 06:11:30;;;;;;;4.97;2.53;;;12.20;99.90;;;;;;4997766;28;20427;-73
2023/05/25 06:13:55;;;;;;;22.83;4.70;;;12.20;99.90;;;;;;5002436;28;20054;-73
2023/05/25 06:16:21;;;;;;;7.47;3.15;;;12.30;99.90;;;;;;4987861;28;20093;-73
2023/05/25 06:18:46;;;;;;;8.35;3.17;;;12.30;99.90;;;;;;4982274;28;20268;-73
2023/05/25 06:21:12;;;;;;;10.73;2.53;;;12.40;99.90;;;;;;4983301;28;20042;-74
2023/05/25 06:23:37;;;;;;;7.32;3.00;;;12.40;99.90;;;;;;4982157;28;20054;-73
2023/05/25 06:26:04;;;;;;;6.25;2.60;;;12.40;99.90;;;;;;4983835;28;20728;-74
2023/05/25 06:28:30;;;;;;;6.05;2.08;;;12.50;99.90;;;;;;4981859;28;20125;-74
2023/05/25 06:30:55;;;;;;;9.05;3.08;;;12.50;99.90;;;;;;4983839;28;20492;-74
2023/05/25 06:33:22;;;;;;;3.65;2.25;;;12.50;99.90;;;;;;4983932;28;20042;-73
2023/05/25 06:35:48;;;;;;;4.65;2.30;;;12.50;99.90;;;;;;4964685;28;20382;-73
2023/05/25 06:38:14;;;;;;;6.22;2.33;;;12.60;99.90;;;;;;4983679;28;20117;-74
2023/05/25 06:40:40;;;;;;;4.70;3.35;;;12.60;99.90;;;;;;4981519;28;20611;-74
2023/05/25 06:43:05;;;;;;;7.35;2.40;;;12.60;99.90;;;;;;4982061;28;20057;-74
2023/05/25 06:45:31;;;;;;;14.65;3.42;;;12.70;99.90;;;;;;4987619;28;20124;-74
2023/05/25 06:47:56;;;;;;;6.10;2.10;;;12.70;99.90;;;;;;5002037;28;20498;-74
2023/05/25 06:50:22;;;;;;;6.45;2.30;;;12.70;99.90;;;;;;5002122;28;20129;-74
2023/05/25 06:52:48;;;;;;;2.63;1.83;;;12.70;99.90;;;;;;4984809;28;20046;-73
2023/05/25 06:55:13;;;;;;;5.35;1.80;;;12.70;99.90;;;;;;5002727;28;20038;-74
2023/05/25 06:57:40;;;;;;;4.13;1.27;;;12.80;99.90;;;;;;5002115;28;20037;-74
2023/05/25 07:00:07;;;;;;;5.35;2.15;;;12.80;99.90;;;;;;5002420;28;20053;-74
2023/05/25 07:02:33;;;;;;;8.23;1.88;;;12.80;99.90;;;;;;5001003;28;20045;-74
2023/05/25 07:05:00;;;;;;;4.65;2.00;;;12.80;99.90;;;;;;5000632;28;20096;-74
2023/05/25 07:07:25;;;;;;;3.33;1.70;;;12.90;99.90;;;;;;5001007;28;20137;-74
2023/05/25 07:09:51;;;;;;;3.88;2.03;;;12.90;99.90;;;;;;5001116;28;20241;-73
2023/05/25 07:12:17;;;;;;;9.65;1.90;;;12.90;99.90;;;;;;5001868;28;20038;-73
2023/05/25 07:14:46;;;;;;;3.25;1.33;;;12.90;99.90;;;;;;5001851;28;20108;-74
2023/05/25 07:17:12;;;;;;;9.15;2.42;;;13.00;99.90;;;;;;4984592;28;20050;-74
2023/05/25 07:19:38;;;;;;;5.60;2.63;;;13.00;99.90;;;;;;5001943;28;20570;-74
2023/05/25 07:22:04;;;;;;;3.53;1.80;;;12.90;99.90;;;;;;5000682;28;20076;-74
2023/05/25 07:24:29;;;;;;;3.63;1.52;;;12.90;99.90;;;;;;5001666;28;20120;-74
2023/05/25 07:26:55;;;;;;;4.90;1.63;;;12.90;99.90;;;;;;5001300;28;20049;-74
2023/05/25 07:29:21;;;;;;;5.60;2.65;;;12.90;99.90;;;;;;5001340;28;20050;-73
2023/05/25 07:31:46;;;;;;;6.47;1.73;;;12.90;99.90;;;;;;4984801;28;20042;-74
2023/05/25 07:34:12;;;;;;;11.00;2.22;;;12.90;99.90;;;;;;5001931;28;20481;-74
2023/05/25 07:36:37;;;;;;;5.45;2.35;;;12.90;99.90;;;;;;4999803;28;20038;-74
2023/05/25 07:39:03;;;;;;;6.80;1.75;;;13.00;99.90;;;;;;5001302;28;20054;-74
2023/05/25 07:41:29;;;;;;;6.15;2.17;;;13.00;99.90;;;;;;5002101;28;20042;-74
2023/05/25 07:43:55;;;;;;;7.13;2.42;;;13.10;99.90;;;;;;5000906;28;20050;-74
2023/05/25 07:46:23;;;;;;;12.82;2.33;;;13.10;99.90;;;;;;4990758;28;20117;-74
2023/05/25 07:48:49;;;;;;;5.65;2.05;;;13.20;99.90;;;;;;4981443;28;20050;-74
2023/05/25 07:51:15;;;;;;;6.57;2.22;;;13.20;99.90;;;;;;4980179;28;20112;-74
2023/05/25 07:53:41;;;;;;;6.13;1.77;;;13.30;99.90;;;;;;4980697;28;20050;-73
2023/05/25 07:56:07;;;;;;;6.32;3.08;;;13.30;99.90;;;;;;4981907;28;20521;-74
2023/05/25 07:58:33;;;;;;;5.00;1.77;;;13.40;99.90;;;;;;4980686;28;20085;-74
2023/05/25 08:00:58;;;;;;;6.85;1.73;;;13.40;99.90;;;;;;4980848;28;20649;-74
2023/05/25 08:03:24;;;;;;;12.20;2.88;;;13.40;99.90;;;;;;4981532;28;20270;-74
2023/05/25 08:05:50;;;;;;;9.02;1.48;;;13.40;99.90;;;;;;4981337;28;20477;-74
2023/05/25 08:08:16;;;;;;;9.48;1.75;;;13.40;99.90;;;;;;4980471;28;20075;-74
2023/05/25 08:10:43;;;;;;;3.95;2.20;;;13.50;99.90;;;;;;4980583;28;20223;-74
2023/05/25 08:13:08;;;;;;;5.18;1.77;;;13.50;99.90;;;;;;4982850;28;20058;-74
2023/05/25 08:15:34;;;;;;;6.97;2.45;;;13.50;99.90;;;;;;4980139;28;20049;-73
2023/05/25 08:18:00;;;;;;;7.65;1.80;;;13.50;99.90;;;;;;4964768;28;20580;-74
2023/05/25 08:20:25;;;;;;;8.80;2.75;;;13.50;99.90;;;;;;4981660;28;20038;-73
2023/05/25 08:22:52;;;;;;;10.50;2.67;;;13.50;99.90;;;;;;4981928;28;20514;-74
2023/05/25 08:25:18;;;;;;;7.93;1.83;;;13.60;99.90;;;;;;4985477;28;20054;-73
2023/05/25 08:27:44;;;;;;;5.35;1.27;;;13.60;99.90;;;;;;4985342;28;20078;-74
2023/05/25 08:30:09;;;;;;;8.82;2.00;;;13.60;99.90;;;;;;4984676;28;20082;-74
2023/05/25 08:32:35;;;;;;;5.30;1.58;;;13.70;99.90;;;;;;4985265;28;20485;-74
2023/05/25 08:35:02;;;;;;;6.47;2.10;;;13.70;99.90;;;;;;4984684;28;20108;-74
2023/05/25 08:37:28;;;;;;;9.73;1.75;;;13.70;99.90;;;;;;4984492;28;20049;-74
2023/05/25 08:39:53;;;;;;;6.65;1.92;;;13.70;99.90;;;;;;4985785;28;20480;-74
2023/05/25 08:42:19;;;;;;;9.07;1.60;;;13.70;99.90;;;;;;4985334;28;20050;-74
2023/05/25 08:44:45;;;;;;;10.88;1.80;;;13.70;99.90;;;;;;4985187;28;20113;-74
2023/05/25 08:47:12;;;;;;;7.03;2.28;;;13.70;99.90;;;;;;5002399;28;20488;-73
2023/05/25 08:49:39;;;;;;;7.90;1.88;;;13.80;99.90;;;;;;5004190;28;20053;-74
2023/05/25 08:52:09;;;;;;;7.13;2.30;;;13.80;99.90;;;;;;5004668;28;20447;-74
2023/05/25 08:54:36;;;;;;;8.10;1.38;;;13.80;99.90;;;;;;5004159;28;20306;-74
2023/05/25 08:57:11;;;;;;;7.95;2.00;;;13.90;99.90;;;;;;5004345;28;20115;-73
2023/05/25 08:59:55;;;;;;;4.03;1.27;;;13.90;99.90;;;;;;5003204;28;20038;-81
2023/05/25 09:02:58;;;;;;;10.77;2.17;;;14.00;99.90;;;;;;5003850;28;20050;-74
2023/05/25 09:05:24;;;;;;;11.95;2.80;;;14.00;99.90;;;;;;4989109;28;20046;-74
2023/05/25 09:07:53;;;;;;;10.00;2.33;;;14.00;99.90;;;;;;5003538;28;20049;-74
2023/05/25 09:10:20;;;;;;;5.10;1.42;;;14.00;99.90;;;;;;5004195;28;20041;-74
2023/05/25 09:12:47;;;;;;;4.47;1.73;;;14.00;99.90;;;;;;5002668;28;20265;-74
2023/05/25 09:15:12;;;;;;;7.07;1.60;;;14.10;99.90;;;;;;5002774;28;20508;-74
2023/05/25 09:17:41;;;;;;;4.78;1.25;;;14.00;99.90;;;;;;5004351;28;20052;-74
2023/05/25 09:20:12;;;;;;;4.60;1.83;;;14.00;99.90;;;;;;5004002;28;20468;-74
2023/05/25 09:22:39;;;;;;;5.43;1.52;;;14.00;99.90;;;;;;5003576;28;20136;-74
2023/05/25 09:25:09;;;;;;;9.43;1.80;;;14.00;99.90;;;;;;5004246;28;20041;-74
2023/05/25 09:27:38;;;;;;;8.70;1.25;;;13.90;99.90;;;;;;5003773;28;20046;-74
2023/05/25 09:30:05;;;;;;;6.10;1.70;;;13.90;99.90;;;;;;5004462;28;20072;-74
2023/05/25 09:32:31;;;;;;;6.68;1.23;;;13.90;99.90;;;;;;5002622;28;20046;-74
2023/05/25 09:35:06;;;;;;;12.93;2.00;;;13.90;99.90;;;;;;4985282;28;20050;-74
2023/05/25 09:37:32;;;;;;;5.25;2.28;;;13.90;99.90;;;;;;5003560;28;20073;-74
2023/05/25 09:39:58;;;;;;;7.50;1.20;;;13.80;99.90;;;;;;5004834;28;20084;-74
2023/05/25 09:42:23;;;;;;;8.75;2.13;;;13.80;99.90;;;;;;5003543;28;20097;-74
2023/05/25 09:44:49;;;;;;;5.03;1.65;;;13.90;99.90;;;;;;5001850;28;20084;-74
2023/05/25 09:47:16;;;;;;;6.22;2.35;;;13.90;99.90;;;;;;4985274;28;20044;-74
2023/05/25 09:49:43;;;;;;;4.43;1.27;;;14.00;99.90;;;;;;4983647;28;20097;-74
2023/05/25 09:52:10;;;;;;;14.02;1.70;;;14.00;99.90;;;;;;4983875;28;20043;-74
2023/05/25 09:54:37;;;;;;;9.20;1.63;;;14.00;99.90;;;;;;4983195;28;20104;-74
2023/05/25 09:57:04;;;;;;;7.88;2.55;;;14.10;99.90;;;;;;4984127;28;20042;-74
2023/05/25 09:59:30;;;;;;;8.35;1.50;;;14.10;99.90;;;;;;4983984;28;20496;-74
2023/05/25 10:01:57;;;;;;;9.60;1.67;;;14.00;99.90;;;;;;4982643;28;20044;-74
2023/05/25 10:04:23;;;;;;;5.35;1.83;;;14.00;99.90;;;;;;4983716;28;20311;-74
2023/05/25 10:06:49;;;;;;;8.27;1.45;;;14.00;99.90;;;;;;4982860;28;20048;-74
2023/05/25 10:09:18;;;;;;;8.50;1.33;;;14.00;99.90;;;;;;4982980;28;20129;-74
2023/05/25 10:11:44;;;;;;;12.98;2.88;;;14.00;99.90;;;;;;4983487;28;20085;-73
2023/05/25 10:14:18;;;;;;;8.63;1.92;;;14.10;99.90;;;;;;4981881;28;20077;-74
2023/05/25 10:16:49;;;;;;;6.47;1.60;;;14.10;99.90;;;;;;4983591;28;20382;-74
2023/05/25 10:19:29;;;;;;;7.57;2.28;;;14.10;99.90;;;;;;4987173;28;20053;-74
2023/05/25 10:22:06;;;;;;;6.75;1.73;;;14.10;99.90;;;;;;5004741;28;20077;-72
2023/05/25 10:24:48;;;;;;;4.93;1.27;;;14.10;99.90;;;;;;5001408;28;20034;-72
2023/05/25 10:27:18;;;;;;;8.00;1.83;;;14.20;99.90;;;;;;5001674;28;20045;-72
2023/05/25 10:29:46;;;;;;;8.48;1.67;;;14.10;99.90;;;;;;5006131;28;20045;-72
2023/05/25 10:32:13;;;;;;;7.40;1.58;;;14.10;99.90;;;;;;5001704;28;20050;-72
2023/05/25 10:34:40;;;;;;;6.25;1.83;;;14.10;99.90;;;;;;5001183;28;20529;-72
2023/05/25 10:37:07;;;;;;;11.93;2.88;;;14.10;99.90;;;;;;5001362;28;20049;-72
2023/05/25 10:39:34;;;;;;;18.52;3.88;;;14.10;99.90;;;;;;5000955;28;20037;-73
2023/05/25 10:42:01;;;;;;;9.40;2.05;;;14.10;99.90;;;;;;4999862;28;20573;-72
2023/05/25 10:44:28;;;;;;;7.55;2.38;;;14.20;99.90;;;;;;4991450;28;20109;-73
2023/05/25 10:46:54;;;;;;;6.22;1.67;;;14.20;99.90;;;;;;4988022;28;20082;-73
2023/05/25 10:49:34;;;;;;;8.73;2.13;;;14.20;99.90;;;;;;5000672;28;20081;-73
2023/05/25 10:52:01;;;;;;;9.25;2.25;;;14.30;99.90;;;;;;5003132;28;20100;-72
2023/05/25 10:54:32;;;;;;;11.38;1.52;;;14.30;99.90;;;;;;5001326;28;20798;-74
2023/05/25 10:57:08;;;;;;;3.80;2.67;;;14.30;99.90;;;;;;5002178;28;20145;-72
2023/05/25 10:59:34;;;;;;;16.08;2.78;;;14.30;99.90;;;;;;5002107;28;20312;-72
2023/05/25 11:02:05;;;;;;;8.35;1.20;;;14.30;99.90;;;;;;4987595;28;20052;-73
2023/05/25 11:04:35;;;;;;;9.95;2.15;;;14.30;99.90;;;;;;4984079;28;20480;-73
2023/05/25 11:07:01;;;;;;;3.90;1.77;;;14.30;99.90;;;;;;5001496;28;20146;-73
2023/05/25 11:09:30;;;;;;;7.28;2.75;;;14.40;99.90;;;;;;5002663;28;20489;-73
2023/05/25 11:11:57;;;;;;;12.70;3.58;;;14.40;99.90;;;;;;5001757;28;20050;-73
2023/05/25 11:14:28;;;;;;;5.65;1.60;;;14.50;99.90;;;;;;4985457;28;20563;-72
2023/05/25 11:17:13;;;;;;;10.82;2.25;;;14.60;99.90;;;;;;4982720;28;20093;-72
2023/05/25 11:19:50;;;;;;;4.63;1.65;;;14.50;99.90;;;;;;4981003;28;20050;-72
2023/05/25 11:22:20;;;;;;;11.15;1.73;;;14.40;99.90;;;;;;4983598;28;20058;-73
2023/05/25 11:24:50;;;;;;;6.15;1.73;;;14.40;99.90;;;;;;4982996;28;20050;-73
2023/05/25 11:27:24;;;;;;;7.40;1.70;;;14.50;99.90;;;;;;4983671;28;20708;-72
2023/05/25 11:29:50;;;;;;;8.30;1.77;;;14.50;99.90;;;;;;4981901;28;20050;-72
2023/05/25 11:32:16;;;;;;;5.60;1.98;;;14.40;99.90;;;;;;4993629;28;20046;-73
2023/05/25 11:34:45;;;;;;;6.45;1.80;;;14.40;99.90;;;;;;4983893;28;20080;-72
2023/05/25 11:37:14;;;;;;;9.95;1.60;;;14.50;99.90;;;;;;5001918;28;20056;-73
2023/05/25 11:39:41;;;;;;;8.88;1.85;;;14.50;99.90;;;;;;5003429;28;20049;-72
2023/05/25 11:42:09;;;;;;;7.63;1.80;;;14.60;99.90;;;;;;4984949;28;20300;-72
2023/05/25 11:44:35;;;;;;;11.50;2.58;;;14.60;99.90;;;;;;5002713;28;20045;-73
2023/05/25 11:47:12;;;;;;;15.23;2.22;;;14.60;99.90;;;;;;5000778;28;20206;-74
2023/05/25 11:49:44;;;;;;;6.10;1.80;;;14.70;99.90;;;;;;4992447;28;20054;-73
2023/05/25 11:52:12;;;;;;;8.98;2.38;;;14.70;99.90;;;;;;4982140;28;20061;-73
2023/05/25 11:54:40;;;;;;;7.25;1.95;;;14.70;99.90;;;;;;4982795;28;20127;-73
2023/05/25 11:57:16;;;;;;;10.95;1.80;;;14.70;99.90;;;;;;4983252;28;20038;-73
2023/05/25 11:59:49;;;;;;;9.90;1.85;;;14.70;99.90;;;;;;5004241;28;20038;-73
2023/05/25 12:02:15;;;;;;;8.23;2.53;;;14.60;99.90;;;;;;5004936;28;20053;-73
2023/05/25 12:04:42;;;;;;;5.82;2.38;;;14.70;99.90;;;;;;4994490;28;20457;-73
2023/05/25 12:07:08;;;;;;;9.15;3.65;;;14.70;99.90;;;;;;4985405;28;20078;-72
2023/05/25 12:09:35;;;;;;;8.95;1.63;;;14.70;99.90;;;;;;4999817;28;20048;-73
2023/05/25 12:12:03;;;;;;;10.35;1.60;;;14.70;99.90;;;;;;5005502;28;20062;-72
2023/05/25 12:14:29;;;;;;;7.45;2.17;;;14.80;99.90;;;;;;5003401;28;20103;-73
2023/05/25 12:16:55;;;;;;;5.97;2.45;;;14.80;99.90;;;;;;5006293;28;20400;-71
2023/05/25 12:19:21;;;;;;;13.98;1.83;;;14.80;99.90;;;;;;5003689;28;20093;-73
2023/05/25 12:21:50;;;;;;;12.75;2.13;;;14.80;99.90;;;;;;5005541;28;20377;-73
2023/05/25 12:24:16;;;;;;;6.60;1.95;;;14.80;99.90;;;;;;5005500;28;20133;-73
2023/05/25 12:26:56;;;;;;;6.53;3.22;;;14.80;99.90;;;;;;5005315;28;20683;-72
2023/05/25 12:29:23;;;;;;;4.43;1.60;;;14.80;99.90;;;;;;5006525;28;20056;-73
2023/05/25 12:31:48;;;;;;;16.83;2.58;;;14.80;99.90;;;;;;5004153;28;20041;-72
2023/05/25 12:34:18;;;;;;;9.68;2.58;;;14.80;99.90;;;;;;5003707;28;20570;-73
2023/05/25 12:36:51;;;;;;;10.40;1.85;;;14.70;99.90;;;;;;5003947;28;20049;-72
2023/05/25 12:39:34;;;;;;;9.73;2.30;;;14.70;99.90;;;;;;5003863;28;20099;-73
2023/05/25 12:42:01;;;;;;;7.53;1.80;;;14.70;99.90;;;;;;4987118;28;20077;-72
2023/05/25 12:44:30;;;;;;;9.57;3.53;;;14.70;99.90;;;;;;5004203;28;20393;-75
2023/05/25 12:46:56;;;;;;;8.10;2.58;;;14.70;99.90;;;;;;5005379;28;20407;-74